Time;durP1;ratioP1;P1;durP2;ratioP2;P2;SDS_P1;SDS_P2;PMS_P1;PMS_P2;Temp;Humidity;BMP_temperature;BMP_pressure;BME280_temperature;BME280_humidity;BME280_pressure;Samples;Min_cycle;Max_cycle;Signal;HPM_P1;HPM_P2
2023/12/06 00:01:36;;;;;;;53.27;43.93;;;;;;;;;;5071097;28;20475;-37
2023/12/06 00:04:04;;;;;;;48.27;43.10;;;;;;;;;;5065704;28;20818;-37
2023/12/06 00:06:33;;;;;;;52.07;45.60;;;;;;;;;;5064340;28;20470;-37
2023/12/06 00:09:01;;;;;;;51.60;43.20;;;;;;;;;;5063287;28;20837;-38
2023/12/06 00:11:29;;;;;;;50.63;41.47;;;;;;;;;;5075201;28;20482;-37
2023/12/06 00:13:56;;;;;;;47.33;42.33;;;;;;;;;;5070717;28;20431;-39
2023/12/06 00:16:24;;;;;;;52.23;44.10;;;;;;;;;;5067055;28;20973;-40
2023/12/06 00:18:53;;;;;;;51.50;43.70;;;;;;;;;;5066172;28;20502;-39
2023/12/06 00:21:21;;;;;;;50.57;41.17;;;;;;;;;;5069671;28;20469;-38
2023/12/06 00:23:50;;;;;;;50.63;43.93;;;;;;;;;;5061439;28;20538;-39
2023/12/06 00:26:18;;;;;;;51.70;45.87;;;;;;;;;;5062421;28;20432;-41
2023/12/06 00:28:46;;;;;;;49.87;43.13;;;;;;;;;;5067509;28;20962;-37
2023/12/06 00:31:13;;;;;;;46.83;41.83;;;;;;;;;;5068530;28;20454;-38
2023/12/06 00:33:41;;;;;;;47.93;42.50;;;;;;;;;;5080788;28;20533;-40
2023/12/06 00:36:09;;;;;;;48.10;42.93;;;;;;;;;;5063709;28;21036;-38
2023/12/06 00:38:36;;;;;;;48.00;43.03;;;;;;;;;;5060865;28;20957;-38
2023/12/06 00:41:05;;;;;;;47.67;42.60;;;;;;;;;;5059615;28;20479;-42
2023/12/06 00:43:33;;;;;;;48.80;41.97;;;;;;;;;;5071866;28;20438;-41
2023/12/06 00:46:01;;;;;;;49.23;42.27;;;;;;;;;;5071596;28;20541;-38
2023/12/06 00:48:27;;;;;;;45.93;41.37;;;;;;;;;;5080208;28;20457;-40
2023/12/06 00:50:56;;;;;;;47.43;42.57;;;;;;;;;;5080117;28;20458;-38
2023/12/06 00:53:23;;;;;;;48.37;41.77;;;;;;;;;;5070047;28;20791;-38
2023/12/06 00:55:51;;;;;;;48.33;43.13;;;;;;;;;;5074746;28;20487;-38
2023/12/06 00:58:20;;;;;;;53.27;43.67;;;;;;;;;;5062127;28;20451;-37
2023/12/06 01:00:48;;;;;;;49.93;44.53;;;;;;;;;;5063985;28;20462;-37
2023/12/06 01:03:16;;;;;;;46.53;41.60;;;;;;;;;;5062841;28;20443;-38
2023/12/06 01:05:43;;;;;;;49.10;43.03;;;;;;;;;;5068472;28;20515;-38
2023/12/06 01:08:11;;;;;;;49.97;42.90;;;;;;;;;;5068062;28;20483;-39
2023/12/06 01:10:38;;;;;;;47.67;42.63;;;;;;;;;;5068266;28;20465;-38
2023/12/06 01:13:06;;;;;;;49.67;44.30;;;;;;;;;;5067958;28;20463;-38
2023/12/06 01:15:35;;;;;;;50.43;44.70;;;;;;;;;;5067637;28;20438;-38
2023/12/06 01:18:03;;;;;;;51.77;42.83;;;;;;;;;;5068288;28;20451;-37
2023/12/06 01:20:30;;;;;;;51.07;44.30;;;;;;;;;;5057432;28;20460;-41
2023/12/06 01:22:58;;;;;;;48.20;43.00;;;;;;;;;;5071619;28;20466;-40
2023/12/06 01:25:26;;;;;;;45.53;41.03;;;;;;;;;;5071019;28;20439;-42
2023/12/06 01:27:53;;;;;;;49.00;43.70;;;;;;;;;;5074056;28;20458;-38
2023/12/06 01:30:21;;;;;;;49.97;42.43;;;;;;;;;;5066146;28;20455;-37
2023/12/06 01:32:50;;;;;;;49.40;43.93;;;;;;;;;;5063706;28;20438;-37
2023/12/06 01:35:17;;;;;;;47.63;42.50;;;;;;;;;;5078840;28;20430;-40
2023/12/06 01:37:45;;;;;;;47.77;42.37;;;;;;;;;;5063837;28;21388;-37
2023/12/06 01:40:13;;;;;;;47.87;40.90;;;;;;;;;;5070964;28;20467;-42
2023/12/06 01:42:41;;;;;;;49.27;43.77;;;;;;;;;;5076212;28;20477;-40
2023/12/06 01:45:09;;;;;;;48.17;42.83;;;;;;;;;;5067445;28;20435;-40
2023/12/06 01:47:37;;;;;;;47.37;42.30;;;;;;;;;;5059911;28;20489;-38
2023/12/06 01:50:08;;;;;;;47.30;42.20;;;;;;;;;;5065651;28;20512;-37
2023/12/06 01:52:36;;;;;;;49.87;43.30;;;;;;;;;;5062445;28;21111;-38
2023/12/06 01:55:05;;;;;;;47.13;42.10;;;;;;;;;;5064065;28;20485;-38
2023/12/06 01:57:33;;;;;;;49.80;44.57;;;;;;;;;;5066772;28;20483;-41
2023/12/06 02:00:01;;;;;;;49.70;44.20;;;;;;;;;;5067427;28;20451;-41
2023/12/06 02:02:29;;;;;;;52.87;44.20;;;;;;;;;;5077633;28;20473;-38
2023/12/06 02:04:56;;;;;;;49.80;42.60;;;;;;;;;;5064193;28;20423;-40
2023/12/06 02:07:27;;;;;;;53.53;44.97;;;;;;;;;;5052181;28;20454;-38
2023/12/06 02:09:56;;;;;;;49.63;44.20;;;;;;;;;;5059778;28;20822;-41
2023/12/06 02:12:23;;;;;;;46.93;42.00;;;;;;;;;;5059699;28;20626;-39
2023/12/06 02:14:51;;;;;;;45.80;41.20;;;;;;;;;;5059326;28;20919;-42
2023/12/06 02:17:19;;;;;;;47.03;41.97;;;;;;;;;;5060170;28;21084;-41
2023/12/06 02:19:48;;;;;;;48.60;42.27;;;;;;;;;;5067018;28;20454;-39
2023/12/06 02:22:15;;;;;;;50.30;44.13;;;;;;;;;;5052570;28;20471;-40
2023/12/06 02:24:45;;;;;;;50.80;44.10;;;;;;;;;;5047319;28;20775;-40
2023/12/06 02:27:15;;;;;;;49.17;43.90;;;;;;;;;;5062866;28;20477;-39
2023/12/06 02:29:43;;;;;;;49.90;42.23;;;;;;;;;;5059790;28;20446;-38
2023/12/06 02:32:10;;;;;;;48.73;43.57;;;;;;;;;;5059487;28;20429;-40
2023/12/06 02:34:38;;;;;;;52.20;44.30;;;;;;;;;;5060610;28;20466;-38
2023/12/06 02:37:08;;;;;;;49.20;43.97;;;;;;;;;;5059344;28;21004;-38
2023/12/06 02:39:36;;;;;;;50.30;45.03;;;;;;;;;;5061067;28;20497;-42
2023/12/06 02:42:04;;;;;;;49.50;42.97;;;;;;;;;;5062929;28;20472;-42
2023/12/06 02:44:34;;;;;;;51.87;44.50;;;;;;;;;;5068423;28;20809;-40
2023/12/06 02:47:02;;;;;;;50.53;45.20;;;;;;;;;;5065413;28;20531;-39
2023/12/06 02:49:29;;;;;;;47.80;42.60;;;;;;;;;;5069007;28;20435;-38
2023/12/06 02:51:57;;;;;;;49.33;43.97;;;;;;;;;;5062062;28;20435;-37
2023/12/06 02:54:25;;;;;;;49.00;43.37;;;;;;;;;;5070688;28;20470;-38
2023/12/06 02:56:53;;;;;;;47.47;40.13;;;;;;;;;;5065790;28;20478;-41
2023/12/06 02:59:20;;;;;;;48.13;41.20;;;;;;;;;;5067488;28;20524;-41
2023/12/06 03:01:49;;;;;;;47.47;42.47;;;;;;;;;;5069560;28;20470;-42
2023/12/06 03:04:17;;;;;;;47.10;42.07;;;;;;;;;;5062370;28;20434;-40
2023/12/06 03:06:44;;;;;;;47.07;42.30;;;;;;;;;;5066472;28;20439;-40
2023/12/06 03:09:12;;;;;;;48.07;43.40;;;;;;;;;;5059473;28;20455;-40
2023/12/06 03:11:40;;;;;;;47.30;41.10;;;;;;;;;;5067397;28;20455;-38
2023/12/06 03:14:08;;;;;;;47.50;42.50;;;;;;;;;;5058596;28;20447;-42
2023/12/06 03:16:36;;;;;;;46.20;41.20;;;;;;;;;;5061291;28;20466;-37
2023/12/06 03:19:05;;;;;;;50.50;43.63;;;;;;;;;;5069787;28;20537;-38
2023/12/06 03:21:33;;;;;;;46.47;41.60;;;;;;;;;;5056348;28;20875;-42
2023/12/06 03:24:01;;;;;;;47.83;40.23;;;;;;;;;;5055898;28;20493;-40
2023/12/06 03:26:28;;;;;;;47.53;42.53;;;;;;;;;;5049634;28;20493;-40
2023/12/06 03:28:56;;;;;;;47.83;42.93;;;;;;;;;;5058974;28;20701;-42
2023/12/06 03:31:23;;;;;;;53.93;44.17;;;;;;;;;;5066766;28;20474;-40
2023/12/06 03:33:52;;;;;;;46.47;41.60;;;;;;;;;;5070063;28;21030;-40
2023/12/06 03:36:21;;;;;;;44.43;40.03;;;;;;;;;;5053556;28;20945;-42
2023/12/06 03:38:49;;;;;;;43.70;39.00;;;;;;;;;;5057736;28;20447;-41
2023/12/06 03:41:19;;;;;;;43.57;39.17;;;;;;;;;;5057419;28;20471;-40
2023/12/06 03:43:47;;;;;;;46.13;41.07;;;;;;;;;;5053723;28;20499;-38
2023/12/06 03:46:29;;;;;;;45.10;40.50;;;;;;;;;;5070458;28;20435;-41
2023/12/06 03:48:57;;;;;;;46.10;41.10;;;;;;;;;;5056196;28;20467;-39
2023/12/06 03:51:26;;;;;;;47.00;41.97;;;;;;;;;;5057515;28;20525;-38
2023/12/06 03:53:54;;;;;;;48.43;43.33;;;;;;;;;;5055564;28;20441;-41
2023/12/06 03:56:21;;;;;;;48.57;43.50;;;;;;;;;;5064596;28;20470;-39
2023/12/06 03:58:49;;;;;;;49.20;43.00;;;;;;;;;;5076767;28;20454;-41
2023/12/06 04:01:16;;;;;;;48.00;43.20;;;;;;;;;;5066923;28;20458;-42
2023/12/06 04:03:44;;;;;;;51.23;43.80;;;;;;;;;;5068157;28;20560;-40
2023/12/06 04:06:12;;;;;;;48.67;42.30;;;;;;;;;;5076552;28;20434;-40
2023/12/06 04:08:40;;;;;;;49.00;43.30;;;;;;;;;;5067807;28;20481;-39
2023/12/06 04:11:08;;;;;;;55.50;45.67;;;;;;;;;;5075676;28;20461;-41
2023/12/06 04:13:36;;;;;;;51.73;45.90;;;;;;;;;;5076147;28;20438;-42
2023/12/06 04:16:04;;;;;;;49.20;44.20;;;;;;;;;;5076111;28;20438;-39
2023/12/06 04:18:32;;;;;;;52.10;44.73;;;;;;;;;;5075627;28;20454;-40
2023/12/06 04:20:59;;;;;;;53.43;44.60;;;;;;;;;;5065849;28;20462;-41
2023/12/06 04:23:27;;;;;;;54.10;45.57;;;;;;;;;;5055420;28;20993;-39
2023/12/06 04:25:56;;;;;;;48.93;43.90;;;;;;;;;;5056137;28;20769;-39
2023/12/06 04:28:24;;;;;;;49.93;44.80;;;;;;;;;;5064645;28;20462;-39
2023/12/06 04:30:52;;;;;;;52.13;46.43;;;;;;;;;;5070999;28;20509;-41
2023/12/06 04:33:20;;;;;;;52.73;46.37;;;;;;;;;;5056255;28;20438;-40
2023/12/06 04:35:48;;;;;;;48.03;42.80;;;;;;;;;;5064940;28;20434;-40
2023/12/06 04:38:15;;;;;;;53.80;46.43;;;;;;;;;;5072462;28;20540;-39
2023/12/06 04:40:43;;;;;;;52.03;46.23;;;;;;;;;;5067501;28;20832;-39
2023/12/06 04:43:12;;;;;;;54.00;44.23;;;;;;;;;;5076089;28;20474;-40
2023/12/06 04:45:39;;;;;;;51.27;44.80;;;;;;;;;;5076319;28;20434;-42
2023/12/06 04:48:07;;;;;;;52.57;45.50;;;;;;;;;;5075047;28;20458;-40
2023/12/06 04:50:34;;;;;;;53.63;47.37;;;;;;;;;;5075979;28;20912;-42
2023/12/06 04:53:03;;;;;;;56.07;45.90;;;;;;;;;;5075056;28;20925;-39
2023/12/06 04:55:33;;;;;;;53.43;44.20;;;;;;;;;;5074247;28;20536;-44
2023/12/06 04:58:01;;;;;;;57.70;46.53;;;;;;;;;;5074953;28;20472;-41
2023/12/06 05:00:30;;;;;;;56.30;45.50;;;;;;;;;;5075604;28;20889;-40
2023/12/06 05:02:59;;;;;;;56.83;49.50;;;;;;;;;;5075549;28;20473;-40
2023/12/06 05:05:26;;;;;;;50.83;44.70;;;;;;;;;;5064209;28;20453;-43
2023/12/06 05:07:55;;;;;;;48.37;43.17;;;;;;;;;;5065947;28;20790;-43
2023/12/06 05:10:23;;;;;;;53.10;46.33;;;;;;;;;;5064957;28;20513;-42
2023/12/06 05:12:51;;;;;;;53.57;45.07;;;;;;;;;;5061031;28;20426;-41
2023/12/06 05:15:18;;;;;;;54.87;46.53;;;;;;;;;;5061801;28;20444;-42
2023/12/06 05:17:50;;;;;;;55.80;45.90;;;;;;;;;;5064862;28;20457;-41
2023/12/06 05:20:18;;;;;;;54.90;47.00;;;;;;;;;;5067731;28;20548;-40
2023/12/06 05:22:46;;;;;;;53.90;47.63;;;;;;;;;;5054971;28;22289;-45
2023/12/06 05:25:14;;;;;;;52.87;46.83;;;;;;;;;;5064383;28;21124;-43
2023/12/06 05:27:42;;;;;;;52.63;45.60;;;;;;;;;;5053718;28;20463;-40
2023/12/06 05:30:10;;;;;;;51.27;45.43;;;;;;;;;;5057948;28;20480;-40
2023/12/06 05:32:37;;;;;;;55.43;47.13;;;;;;;;;;5070985;28;20445;-40
2023/12/06 05:35:07;;;;;;;54.23;45.77;;;;;;;;;;5059983;28;20436;-39
2023/12/06 05:37:35;;;;;;;54.17;47.73;;;;;;;;;;5060840;28;20550;-39
2023/12/06 05:40:03;;;;;;;56.03;46.87;;;;;;;;;;5056349;28;20458;-41
2023/12/06 05:42:31;;;;;;;52.60;47.07;;;;;;;;;;5071348;28;20462;-40
2023/12/06 05:44:58;;;;;;;51.40;45.90;;;;;;;;;;5070690;28;20466;-40
2023/12/06 05:47:26;;;;;;;53.57;47.73;;;;;;;;;;5063427;28;20885;-40
2023/12/06 05:49:54;;;;;;;52.53;45.20;;;;;;;;;;5063421;28;20454;-40
2023/12/06 05:52:21;;;;;;;50.67;45.47;;;;;;;;;;5056063;28;20810;-42
2023/12/06 05:54:49;;;;;;;54.47;46.97;;;;;;;;;;5070650;28;20801;-39
2023/12/06 05:57:17;;;;;;;53.47;47.73;;;;;;;;;;5062910;28;20478;-42
2023/12/06 05:59:44;;;;;;;54.50;45.90;;;;;;;;;;5069286;28;20454;-44
2023/12/06 06:02:12;;;;;;;51.27;45.73;;;;;;;;;;5065723;28;20434;-40
2023/12/06 06:04:39;;;;;;;53.60;47.90;;;;;;;;;;5071668;28;20470;-41
2023/12/06 06:07:07;;;;;;;55.67;46.93;;;;;;;;;;5066088;28;20451;-40
2023/12/06 06:09:36;;;;;;;54.13;46.40;;;;;;;;;;5059987;28;20439;-42
2023/12/06 06:12:08;;;;;;;53.77;47.70;;;;;;;;;;5065007;28;20434;-42
2023/12/06 06:14:35;;;;;;;56.03;47.87;;;;;;;;;;5054204;28;20493;-43
2023/12/06 06:17:03;;;;;;;62.37;49.13;;;;;;;;;;5050889;28;20634;-45
2023/12/06 06:19:31;;;;;;;56.20;50.10;;;;;;;;;;5067645;28;20477;-42
2023/12/06 06:21:58;;;;;;;59.40;50.77;;;;;;;;;;5057955;28;20795;-39
2023/12/06 06:24:26;;;;;;;58.50;49.80;;;;;;;;;;5071520;28;20462;-42
2023/12/06 06:26:56;;;;;;;58.53;49.83;;;;;;;;;;5063250;28;20783;-44
2023/12/06 06:29:23;;;;;;;61.70;49.43;;;;;;;;;;5071596;28;20438;-41
2023/12/06 06:31:51;;;;;;;57.63;48.87;;;;;;;;;;5070761;28;20454;-42
2023/12/06 06:34:19;;;;;;;55.07;49.07;;;;;;;;;;5071389;28;20445;-39
2023/12/06 06:36:46;;;;;;;52.37;46.90;;;;;;;;;;5071265;28;20450;-42
2023/12/06 06:39:14;;;;;;;61.60;51.73;;;;;;;;;;5064190;28;20477;-43
2023/12/06 06:41:42;;;;;;;62.23;49.03;;;;;;;;;;5068513;28;21084;-40
2023/12/06 06:44:10;;;;;;;63.73;51.17;;;;;;;;;;5071076;28;20557;-39
2023/12/06 06:46:39;;;;;;;61.93;51.80;;;;;;;;;;5054585;28;20526;-39
2023/12/06 06:49:06;;;;;;;65.97;50.40;;;;;;;;;;5067137;28;20523;-39
2023/12/06 06:51:35;;;;;;;65.37;51.17;;;;;;;;;;5066959;28;20888;-39
2023/12/06 06:54:03;;;;;;;64.13;53.00;;;;;;;;;;5066789;28;20432;-38
2023/12/06 06:56:30;;;;;;;69.83;53.43;;;;;;;;;;5066502;28;21063;-40
2023/12/06 06:58:58;;;;;;;67.93;54.30;;;;;;;;;;5071340;28;20446;-40
2023/12/06 07:01:27;;;;;;;65.50;52.50;;;;;;;;;;5070085;28;21070;-45
2023/12/06 07:03:55;;;;;;;73.23;52.40;;;;;;;;;;5058691;28;20630;-42
2023/12/06 07:06:23;;;;;;;64.23;52.67;;;;;;;;;;5049950;28;20551;-38
2023/12/06 07:08:51;;;;;;;63.47;52.30;;;;;;;;;;5050389;28;20543;-41
2023/12/06 07:11:18;;;;;;;61.23;50.73;;;;;;;;;;5049592;28;20496;-39
2023/12/06 07:13:46;;;;;;;61.63;51.37;;;;;;;;;;5060726;28;20441;-38
2023/12/06 07:16:14;;;;;;;59.43;52.20;;;;;;;;;;5069610;28;20942;-42
2023/12/06 07:18:44;;;;;;;74.50;54.73;;;;;;;;;;5061722;28;20459;-41
2023/12/06 07:21:12;;;;;;;67.30;51.90;;;;;;;;;;5057644;28;20455;-44
2023/12/06 07:23:40;;;;;;;66.70;55.40;;;;;;;;;;5058499;28;20443;-43
2023/12/06 07:26:08;;;;;;;73.37;54.53;;;;;;;;;;5069794;28;20526;-42
2023/12/06 07:28:35;;;;;;;68.43;51.60;;;;;;;;;;5068744;28;21010;-40
2023/12/06 07:31:03;;;;;;;67.80;56.70;;;;;;;;;;5062791;28;20521;-40
2023/12/06 07:33:31;;;;;;;77.40;55.93;;;;;;;;;;5066504;28;20431;-41
2023/12/06 07:36:00;;;;;;;92.37;59.53;;;;;;;;;;5070609;28;20805;-39
2023/12/06 07:38:28;;;;;;;77.63;58.07;;;;;;;;;;5069572;28;20883;-40
2023/12/06 07:40:56;;;;;;;70.10;54.33;;;;;;;;;;5052823;28;20508;-42
2023/12/06 07:43:25;;;;;;;82.53;57.30;;;;;;;;;;5054439;28;20436;-40
2023/12/06 07:45:53;;;;;;;75.03;58.17;;;;;;;;;;5060312;28;20463;-40
2023/12/06 07:48:20;;;;;;;80.67;56.37;;;;;;;;;;5055326;28;20546;-40
2023/12/06 07:50:50;;;;;;;83.67;59.27;;;;;;;;;;5067968;28;20462;-40
2023/12/06 07:53:19;;;;;;;85.40;59.17;;;;;;;;;;5062536;28;20441;-39
2023/12/06 07:55:47;;;;;;;86.43;59.43;;;;;;;;;;5051159;28;20432;-38
2023/12/06 07:58:16;;;;;;;89.43;60.37;;;;;;;;;;5058888;28;20443;-39
2023/12/06 08:00:44;;;;;;;85.70;62.57;;;;;;;;;;5066155;28;20459;-41
2023/12/06 08:03:11;;;;;;;87.60;62.87;;;;;;;;;;5055231;28;20438;-42
2023/12/06 08:05:39;;;;;;;85.70;58.47;;;;;;;;;;5070272;28;20477;-40
2023/12/06 08:08:07;;;;;;;88.67;58.80;;;;;;;;;;5069369;28;20532;-39
2023/12/06 08:10:36;;;;;;;78.67;58.30;;;;;;;;;;5062193;28;20463;-39
2023/12/06 08:13:03;;;;;;;81.57;57.50;;;;;;;;;;5070375;28;20438;-39
2023/12/06 08:15:31;;;;;;;83.17;58.03;;;;;;;;;;5070786;28;20522;-39
2023/12/06 08:17:59;;;;;;;88.43;60.83;;;;;;;;;;5053817;28;20528;-39
2023/12/06 08:20:26;;;;;;;91.57;64.77;;;;;;;;;;5063398;28;20523;-42
2023/12/06 08:22:54;;;;;;;91.57;61.13;;;;;;;;;;5061001;28;20906;-42
2023/12/06 08:25:22;;;;;;;85.50;62.77;;;;;;;;;;5068979;28;20466;-39
2023/12/06 08:27:51;;;;;;;93.50;62.87;;;;;;;;;;5061721;28;20507;-39
2023/12/06 08:30:19;;;;;;;97.93;65.00;;;;;;;;;;5069094;28;20471;-40
2023/12/06 08:32:46;;;;;;;94.57;61.40;;;;;;;;;;5060121;28;20459;-40
2023/12/06 08:35:14;;;;;;;88.00;61.50;;;;;;;;;;5062592;28;20442;-42
2023/12/06 08:37:42;;;;;;;91.73;61.10;;;;;;;;;;5059783;28;20508;-39
2023/12/06 08:40:12;;;;;;;96.80;62.60;;;;;;;;;;5060760;28;20458;-39
2023/12/06 08:42:39;;;;;;;102.57;63.97;;;;;;;;;;5061291;28;20509;-39
2023/12/06 08:45:09;;;;;;;92.50;62.23;;;;;;;;;;5056939;28;20469;-40
2023/12/06 08:47:37;;;;;;;95.40;63.67;;;;;;;;;;5056597;28;20467;-39
2023/12/06 08:50:07;;;;;;;100.87;64.53;;;;;;;;;;5044065;28;20463;-39
2023/12/06 08:52:35;;;;;;;98.60;64.20;;;;;;;;;;5053419;28;20810;-44
2023/12/06 08:55:03;;;;;;;100.47;64.80;;;;;;;;;;5072244;28;20995;-39
2023/12/06 08:57:31;;;;;;;100.57;63.20;;;;;;;;;;5072792;28;20454;-39
2023/12/06 08:59:59;;;;;;;114.50;65.60;;;;;;;;;;5053114;28;20450;-40
2023/12/06 09:02:28;;;;;;;109.97;66.70;;;;;;;;;;5068124;28;20887;-39
2023/12/06 09:04:56;;;;;;;98.90;63.90;;;;;;;;;;5072731;28;20470;-38
2023/12/06 09:07:24;;;;;;;113.30;68.83;;;;;;;;;;5073074;28;20482;-39
2023/12/06 09:09:53;;;;;;;103.50;65.63;;;;;;;;;;5072267;28;20450;-39
2023/12/06 09:12:21;;;;;;;105.67;66.23;;;;;;;;;;5073555;28;20491;-40
2023/12/06 09:14:49;;;;;;;117.90;70.10;;;;;;;;;;5064471;28;20434;-40
2023/12/06 09:17:17;;;;;;;120.60;70.43;;;;;;;;;;5060501;28;20497;-39
2023/12/06 09:19:46;;;;;;;108.87;66.40;;;;;;;;;;5069173;28;20530;-39
2023/12/06 09:22:15;;;;;;;112.77;71.17;;;;;;;;;;5064438;28;20453;-40
2023/12/06 09:24:47;;;;;;;112.33;69.40;;;;;;;;;;5072923;28;20960;-38
2023/12/06 09:27:16;;;;;;;115.67;66.87;;;;;;;;;;5064579;28;20454;-42
2023/12/06 09:29:45;;;;;;;117.37;70.83;;;;;;;;;;5072162;28;20532;-41
2023/12/06 09:32:13;;;;;;;117.73;72.37;;;;;;;;;;5064785;28;20434;-42
2023/12/06 09:34:41;;;;;;;123.13;70.97;;;;;;;;;;5073050;28;20845;-45
2023/12/06 09:37:16;;;;;;;107.60;69.47;;;;;;;;;;5050908;28;20571;-42
2023/12/06 09:39:44;;;;;;;104.47;67.27;;;;;;;;;;5055428;28;20443;-42
2023/12/06 09:42:12;;;;;;;107.27;67.97;;;;;;;;;;5056871;28;20521;-40
2023/12/06 09:44:42;;;;;;;95.17;63.93;;;;;;;;;;5064672;28;20865;-39
2023/12/06 09:47:11;;;;;;;96.27;64.87;;;;;;;;;;5053320;28;20949;-39
2023/12/06 09:49:39;;;;;;;106.00;62.77;;;;;;;;;;5067990;28;20476;-41
2023/12/06 09:52:09;;;;;;;93.23;63.57;;;;;;;;;;5060157;28;20493;-39
2023/12/06 09:54:40;;;;;;;103.03;66.50;;;;;;;;;;5068441;28;20457;-42
2023/12/06 09:57:08;;;;;;;96.73;63.73;;;;;;;;;;5064191;28;20454;-38
2023/12/06 09:59:35;;;;;;;104.80;65.70;;;;;;;;;;5071865;28;20430;-39
2023/12/06 10:02:03;;;;;;;95.60;65.30;;;;;;;;;;5090473;22;20512;-43
2023/12/06 10:04:31;;;;;;;92.70;63.83;;;;;;;;;;5019217;28;20449;-43
2023/12/06 10:06:59;;;;;;;100.10;65.73;;;;;;;;;;5015803;28;20469;-41
2023/12/06 10:09:26;;;;;;;104.03;63.80;;;;;;;;;;5027446;28;20461;-42
2023/12/06 10:12:06;;;;;;;92.50;65.13;;;;;;;;;;5023422;28;20468;-40
2023/12/06 10:14:33;;;;;;;92.50;63.67;;;;;;;;;;5033578;28;20460;-41
2023/12/06 10:17:02;;;;;;;92.70;63.57;;;;;;;;;;5033689;28;20444;-43
2023/12/06 10:19:31;;;;;;;90.97;63.10;;;;;;;;;;5033423;28;20493;-42
2023/12/06 10:21:59;;;;;;;89.97;64.73;;;;;;;;;;5024828;28;20468;-43
2023/12/06 10:24:28;;;;;;;95.40;64.57;;;;;;;;;;5033603;28;20433;-43
2023/12/06 10:27:02;;;;;;;96.13;63.47;;;;;;;;;;5032927;28;20471;-43
2023/12/06 10:29:32;;;;;;;85.27;62.30;;;;;;;;;;5032643;28;20858;-43
2023/12/06 10:32:00;;;;;;;99.23;66.47;;;;;;;;;;5033077;28;20467;-44
2023/12/06 10:34:28;;;;;;;92.30;68.20;;;;;;;;;;5032702;28;20464;-41
2023/12/06 10:36:56;;;;;;;85.87;64.73;;;;;;;;;;5032265;28;20424;-41
2023/12/06 10:39:26;;;;;;;105.20;63.47;;;;;;;;;;5033223;28;20523;-43
2023/12/06 10:41:55;;;;;;;89.43;65.07;;;;;;;;;;5021455;28;20471;-44
2023/12/06 10:44:23;;;;;;;94.97;63.57;;;;;;;;;;5032340;28;20436;-41
2023/12/06 10:46:53;;;;;;;96.90;65.63;;;;;;;;;;5032416;28;20536;-44
2023/12/06 10:49:32;;;;;;;93.73;63.47;;;;;;;;;;5032731;28;20436;-41
2023/12/06 10:52:00;;;;;;;96.60;67.60;;;;;;;;;;5032448;28;20486;-41
2023/12/06 10:54:28;;;;;;;99.83;64.53;;;;;;;;;;5033172;28;20487;-43
2023/12/06 10:56:57;;;;;;;91.77;63.73;;;;;;;;;;5033171;28;20507;-41
2023/12/06 10:59:26;;;;;;;102.90;63.57;;;;;;;;;;5033186;28;20432;-39
2023/12/06 11:01:55;;;;;;;108.60;68.87;;;;;;;;;;5021080;28;20474;-41
2023/12/06 11:04:25;;;;;;;101.37;68.00;;;;;;;;;;5032728;28;20531;-42
2023/12/06 11:06:58;;;;;;;96.50;65.80;;;;;;;;;;5032672;28;20494;-41
2023/12/06 11:09:30;;;;;;;93.60;65.33;;;;;;;;;;5032452;28;21019;-43
2023/12/06 11:12:05;;;;;;;102.53;66.00;;;;;;;;;;5031961;28;21026;-40
2023/12/06 11:14:43;;;;;;;106.40;64.90;;;;;;;;;;5031842;28;20428;-44
2023/12/06 11:17:20;;;;;;;101.70;64.60;;;;;;;;;;5031816;28;20439;-43
2023/12/06 11:19:49;;;;;;;101.47;63.77;;;;;;;;;;5031326;28;20867;-40
2023/12/06 11:22:16;;;;;;;97.37;64.20;;;;;;;;;;5023931;28;20456;-44
2023/12/06 11:24:45;;;;;;;113.43;70.03;;;;;;;;;;5031946;28;20439;-44
2023/12/06 11:27:13;;;;;;;102.73;65.20;;;;;;;;;;5032790;28;20480;-43
2023/12/06 11:29:42;;;;;;;94.47;65.60;;;;;;;;;;5031883;28;20429;-43
2023/12/06 11:32:11;;;;;;;92.90;65.33;;;;;;;;;;5032390;28;20514;-42
2023/12/06 11:34:40;;;;;;;102.73;70.03;;;;;;;;;;5032849;28;20780;-45
2023/12/06 11:37:15;;;;;;;96.60;66.77;;;;;;;;;;5031560;28;20432;-42
2023/12/06 11:39:43;;;;;;;102.53;64.13;;;;;;;;;;5031854;28;20435;-41
2023/12/06 11:42:17;;;;;;;92.27;65.83;;;;;;;;;;5032062;28;20539;-43
2023/12/06 11:44:52;;;;;;;97.40;68.30;;;;;;;;;;5031692;28;20486;-42
2023/12/06 11:47:24;;;;;;;98.07;66.07;;;;;;;;;;5032179;28;20481;-43
2023/12/06 11:49:54;;;;;;;108.37;67.47;;;;;;;;;;5031684;28;20483;-40
2023/12/06 11:52:22;;;;;;;105.03;70.67;;;;;;;;;;5032007;28;20859;-41
2023/12/06 11:54:50;;;;;;;100.90;65.83;;;;;;;;;;5031769;28;20432;-41
2023/12/06 11:57:19;;;;;;;106.53;70.03;;;;;;;;;;5031714;28;20486;-43
2023/12/06 11:59:47;;;;;;;112.57;69.80;;;;;;;;;;5031418;28;20479;-41
2023/12/06 12:02:15;;;;;;;110.07;69.37;;;;;;;;;;5023641;28;20474;-41
2023/12/06 12:04:44;;;;;;;106.93;69.87;;;;;;;;;;5031712;28;20804;-41
2023/12/06 12:07:13;;;;;;;98.57;66.50;;;;;;;;;;5032188;28;20472;-40
2023/12/06 12:09:41;;;;;;;105.17;73.50;;;;;;;;;;5031603;28;20432;-42
2023/12/06 12:12:09;;;;;;;118.20;73.97;;;;;;;;;;5031807;28;20467;-41
2023/12/06 12:14:37;;;;;;;103.00;67.93;;;;;;;;;;5035631;28;20451;-41
2023/12/06 12:17:05;;;;;;;104.93;70.67;;;;;;;;;;5036007;28;20456;-43
2023/12/06 12:19:32;;;;;;;100.57;69.13;;;;;;;;;;5035932;28;20468;-40
2023/12/06 12:22:04;;;;;;;101.90;67.60;;;;;;;;;;5035357;28;20526;-41
2023/12/06 12:24:34;;;;;;;107.83;72.43;;;;;;;;;;5035938;28;20436;-43
2023/12/06 12:27:04;;;;;;;111.97;72.57;;;;;;;;;;5035871;28;20517;-43
2023/12/06 12:29:31;;;;;;;102.87;68.30;;;;;;;;;;5034801;28;20432;-42
2023/12/06 12:32:00;;;;;;;103.10;71.03;;;;;;;;;;5035566;28;20456;-41
2023/12/06 12:34:28;;;;;;;105.77;70.97;;;;;;;;;;5036215;28;20438;-43
2023/12/06 12:37:00;;;;;;;111.30;71.27;;;;;;;;;;5035540;28;20424;-43
2023/12/06 12:39:27;;;;;;;111.97;73.13;;;;;;;;;;5035789;28;20947;-40
2023/12/06 12:41:57;;;;;;;117.50;70.27;;;;;;;;;;5034985;28;20466;-43
2023/12/06 12:44:24;;;;;;;110.00;70.20;;;;;;;;;;5034765;28;20534;-41
2023/12/06 12:46:52;;;;;;;96.87;67.77;;;;;;;;;;5034576;28;20471;-40
2023/12/06 12:49:30;;;;;;;107.23;71.87;;;;;;;;;;5034568;28;20431;-40
2023/12/06 12:51:58;;;;;;;109.87;69.67;;;;;;;;;;5034493;28;20506;-40
2023/12/06 12:54:26;;;;;;;116.57;75.03;;;;;;;;;;5034720;28;20428;-42
2023/12/06 12:56:54;;;;;;;106.37;72.93;;;;;;;;;;5034567;28;20432;-40
2023/12/06 12:59:24;;;;;;;105.03;75.40;;;;;;;;;;5034311;28;20430;-42
2023/12/06 13:01:53;;;;;;;95.60;64.30;;;;;;;;;;5022938;28;20470;-40
2023/12/06 13:04:21;;;;;;;105.00;67.53;;;;;;;;;;5034263;28;20806;-40
2023/12/06 13:06:49;;;;;;;109.33;69.90;;;;;;;;;;5034456;28;20519;-42
2023/12/06 13:09:17;;;;;;;107.17;68.57;;;;;;;;;;5034707;28;20432;-42
2023/12/06 13:11:46;;;;;;;97.13;66.60;;;;;;;;;;5033704;28;20498;-41
2023/12/06 13:14:15;;;;;;;114.13;70.63;;;;;;;;;;5033884;28;20490;-41
2023/12/06 13:16:44;;;;;;;115.67;74.30;;;;;;;;;;5034469;28;20539;-41
2023/12/06 13:19:12;;;;;;;120.10;72.63;;;;;;;;;;5034379;28;20439;-41
2023/12/06 13:21:40;;;;;;;109.20;72.30;;;;;;;;;;5024466;28;20555;-41
2023/12/06 13:24:08;;;;;;;111.13;72.03;;;;;;;;;;5033735;28;20475;-41
2023/12/06 13:26:36;;;;;;;109.37;70.73;;;;;;;;;;5033140;28;20428;-41
2023/12/06 13:29:04;;;;;;;104.43;67.40;;;;;;;;;;5034405;28;20949;-40
2023/12/06 13:31:31;;;;;;;116.97;74.00;;;;;;;;;;5033548;28;20464;-40
2023/12/06 13:34:00;;;;;;;110.00;71.87;;;;;;;;;;5033749;28;20436;-41
2023/12/06 13:36:28;;;;;;;116.13;70.43;;;;;;;;;;5034200;28;20511;-40
2023/12/06 13:38:57;;;;;;;110.80;71.40;;;;;;;;;;5034263;28;20539;-42
2023/12/06 13:41:24;;;;;;;112.80;73.00;;;;;;;;;;5033359;28;20459;-43
2023/12/06 13:43:54;;;;;;;114.30;70.83;;;;;;;;;;5033805;28;20467;-43
2023/12/06 13:46:22;;;;;;;101.17;69.73;;;;;;;;;;5018017;28;20989;-43
2023/12/06 13:48:50;;;;;;;100.57;69.23;;;;;;;;;;5033671;28;20480;-43
2023/12/06 13:51:19;;;;;;;103.80;69.90;;;;;;;;;;5033248;28;20464;-41
2023/12/06 13:53:46;;;;;;;113.43;76.60;;;;;;;;;;5033792;28;20437;-41
2023/12/06 13:56:14;;;;;;;102.20;69.90;;;;;;;;;;5033979;28;20432;-43
2023/12/06 13:58:42;;;;;;;100.57;70.57;;;;;;;;;;5033806;28;20772;-42
2023/12/06 14:01:09;;;;;;;96.93;68.27;;;;;;;;;;5032944;28;20464;-43
2023/12/06 14:03:37;;;;;;;98.97;70.17;;;;;;;;;;5033571;28;20440;-43
2023/12/06 14:06:05;;;;;;;99.77;67.80;;;;;;;;;;5033354;28;20472;-41
2023/12/06 14:08:34;;;;;;;113.07;76.00;;;;;;;;;;5032322;28;20480;-43
2023/12/06 14:11:01;;;;;;;98.23;67.50;;;;;;;;;;5032422;28;20544;-41
2023/12/06 14:13:29;;;;;;;105.07;71.03;;;;;;;;;;5033284;28;20975;-41
2023/12/06 14:15:57;;;;;;;113.53;76.60;;;;;;;;;;5033670;28;20456;-41
2023/12/06 14:18:24;;;;;;;120.17;74.90;;;;;;;;;;5033601;28;20436;-42
2023/12/06 14:20:52;;;;;;;108.13;72.53;;;;;;;;;;5023701;28;20465;-40